createdAt,value
2018-06-07T00:02:07.439Z,53.20
2018-06-07T00:04:41.779Z,53.10
2018-06-07T00:07:16.075Z,53.10
2018-06-07T00:09:50.342Z,53.10
2018-06-07T00:12:25.914Z,53.00
2018-06-07T00:15:01.723Z,53.10
2018-06-07T00:17:35.880Z,53.10
2018-06-07T00:20:10.139Z,53.10
2018-06-07T00:22:44.476Z,53.20
2018-06-07T00:25:18.985Z,53.40
2018-06-07T00:27:53.313Z,53.10
2018-06-07T00:30:27.679Z,53.10
2018-06-07T00:33:02.099Z,53.20
2018-06-07T00:40:52.729Z,53.40
2018-06-07T00:43:28.853Z,52.90
2018-06-07T00:46:03.485Z,53.50
2018-06-07T00:48:37.896Z,53.10
2018-06-07T00:51:12.075Z,53.70
2018-06-07T00:53:46.478Z,53.60
2018-06-07T00:56:32.243Z,54.00
2018-06-07T00:59:06.498Z,54.40
2018-06-07T01:01:40.859Z,54.00
2018-06-07T01:04:15.399Z,54.60
2018-06-07T01:06:50.258Z,54.30
2018-06-07T01:09:24.694Z,54.40
2018-06-07T01:11:59.046Z,54.30
2018-06-07T01:14:33.290Z,54.60
2018-06-07T01:17:07.707Z,54.70
2018-06-07T01:19:41.960Z,54.90
2018-06-07T01:22:16.201Z,55.10
2018-06-07T01:24:50.501Z,55.20
2018-06-07T01:27:30.106Z,55.30
2018-06-07T01:30:21.393Z,55.50
2018-06-07T01:33:26.614Z,55.50
2018-06-07T01:36:01.061Z,55.50
2018-06-07T01:38:46.564Z,55.70
2018-06-07T01:41:20.933Z,55.90
2018-06-07T01:43:55.238Z,55.40
2018-06-07T01:46:29.562Z,55.50
2018-06-07T01:49:03.897Z,56.10
2018-06-07T01:51:38.198Z,56.00
2018-06-07T01:54:12.494Z,56.50
2018-06-07T01:56:46.830Z,56.40
2018-06-07T01:59:21.083Z,56.90
2018-06-07T02:01:55.368Z,56.70
2018-06-07T02:04:29.721Z,57.10
2018-06-07T02:07:03.989Z,57.10
2018-06-07T02:12:12.291Z,57.30
2018-06-07T02:14:46.436Z,57.00
2018-06-07T02:17:20.795Z,56.90
2018-06-07T02:19:55.070Z,56.90
2018-06-07T02:22:29.241Z,57.00
2018-06-07T02:25:03.534Z,56.90
2018-06-07T02:27:37.777Z,57.20
2018-06-07T02:30:12.063Z,57.10
2018-06-07T02:32:46.431Z,56.70
2018-06-07T02:35:20.703Z,56.70
2018-06-07T02:37:55.023Z,57.10
2018-06-07T02:40:29.188Z,56.80
2018-06-07T02:43:03.570Z,57.10
2018-06-07T02:45:37.853Z,57.00
2018-06-07T02:48:12.215Z,57.40
2018-06-07T02:50:46.498Z,57.50
2018-06-07T02:53:20.855Z,57.60
2018-06-07T02:55:55.122Z,57.40
2018-06-07T02:58:29.474Z,57.70
2018-06-07T03:01:03.678Z,57.60
2018-06-07T03:03:38.118Z,57.50
2018-06-07T03:06:12.426Z,58.10
2018-06-07T03:08:46.779Z,57.80
2018-06-07T03:11:20.977Z,58.40
2018-06-07T03:13:55.131Z,58.10
2018-06-07T03:16:29.398Z,58.30
2018-06-07T03:19:03.835Z,58.20
2018-06-07T03:21:38.130Z,58.30
2018-06-07T03:24:12.440Z,58.10
2018-06-07T03:26:46.669Z,58.30
2018-06-07T03:29:20.902Z,58.40
2018-06-07T03:31:55.243Z,58.20
2018-06-07T03:34:29.539Z,58.40
2018-06-07T03:37:03.758Z,58.40
2018-06-07T03:39:37.990Z,58.40
2018-06-07T03:42:12.385Z,58.70
2018-06-07T03:44:46.774Z,58.20
2018-06-07T03:47:20.976Z,58.30
2018-06-07T03:49:55.188Z,58.50
2018-06-07T03:52:29.639Z,58.40
2018-06-07T03:55:03.966Z,58.20
2018-06-07T03:57:38.294Z,58.20
2018-06-07T04:00:12.518Z,58.40
2018-06-07T04:02:46.686Z,58.60
2018-06-07T04:05:20.986Z,58.50
2018-06-07T04:07:55.245Z,58.50
2018-06-07T04:10:29.719Z,58.30
2018-06-07T04:15:38.015Z,58.30
2018-06-07T04:18:12.201Z,58.20
2018-06-07T04:20:46.618Z,58.20
2018-06-07T04:23:20.903Z,58.10
2018-06-07T04:25:55.205Z,57.90
2018-06-07T04:31:03.670Z,58.10
2018-06-07T04:33:37.842Z,58.00
2018-06-07T04:36:12.169Z,58.30
2018-06-07T04:38:46.328Z,58.10
2018-06-07T04:41:20.543Z,58.10
2018-06-07T04:43:54.795Z,58.50
2018-06-07T04:46:29.054Z,58.30
2018-06-07T04:49:03.219Z,58.50
2018-06-07T04:51:37.398Z,58.30
2018-06-07T04:54:12.793Z,58.10
2018-06-07T04:56:47.151Z,57.80
2018-06-07T04:59:21.454Z,58.20
2018-06-07T05:01:55.808Z,57.50
2018-06-07T05:04:30.130Z,57.90
2018-06-07T05:07:04.296Z,58.00
2018-06-07T05:09:38.570Z,57.40
2018-06-07T05:12:12.981Z,57.40
2018-06-07T05:14:47.135Z,56.90
2018-06-07T05:17:21.462Z,57.00
2018-06-07T05:19:55.643Z,56.80
2018-06-07T05:22:29.846Z,56.70
2018-06-07T05:25:04.027Z,56.50
2018-06-07T05:30:12.715Z,56.60
2018-06-07T05:32:46.950Z,56.00
2018-06-07T05:35:21.117Z,56.30
2018-06-07T05:37:55.538Z,56.20
2018-06-07T05:40:30.118Z,56.10
2018-06-07T05:43:04.439Z,56.40
2018-06-07T05:45:38.728Z,56.10
2018-06-07T05:48:13.009Z,56.30
2018-06-07T05:50:47.182Z,56.00
2018-06-07T05:53:21.366Z,55.70
2018-06-07T05:55:55.603Z,55.60
2018-06-07T05:58:29.735Z,55.80
2018-06-07T06:01:04.027Z,55.10
2018-06-07T06:03:38.215Z,55.70
2018-06-07T06:06:12.526Z,55.50
2018-06-07T06:11:20.880Z,55.50
2018-06-07T06:13:55.144Z,55.30
2018-06-07T06:16:29.478Z,55.70
2018-06-07T06:19:03.632Z,55.50
2018-06-07T06:21:37.803Z,55.50
2018-06-07T06:24:12.455Z,55.20
2018-06-07T06:26:46.748Z,54.80
2018-06-07T06:29:20.898Z,54.90
2018-06-07T06:31:55.176Z,54.70
2018-06-07T06:34:29.803Z,54.90
2018-06-07T06:37:04.085Z,54.70
2018-06-07T06:39:38.474Z,54.60
2018-06-07T06:42:12.641Z,55.10
2018-06-07T06:44:46.891Z,54.40
2018-06-07T06:47:21.187Z,54.20
2018-06-07T06:49:55.353Z,54.10
2018-06-07T06:52:29.803Z,54.70
2018-06-07T06:55:04.183Z,55.10
2018-06-07T06:57:38.468Z,55.30
2018-06-07T07:00:12.664Z,54.50
2018-06-07T07:02:46.972Z,54.30
2018-06-07T07:05:21.319Z,54.40
2018-06-07T07:07:55.655Z,54.20
2018-06-07T07:10:29.933Z,53.60
2018-06-07T07:13:04.275Z,54.40
2018-06-07T07:15:38.498Z,53.50
2018-06-07T07:18:12.811Z,54.20
2018-06-07T07:20:46.945Z,53.20
2018-06-07T07:23:21.311Z,53.70
2018-06-07T07:25:55.467Z,53.20
2018-06-07T07:28:29.785Z,53.40
2018-06-07T07:31:04.106Z,53.30
2018-06-07T07:33:38.375Z,53.20
2018-06-07T07:36:12.711Z,53.20
2018-06-07T07:38:47.006Z,53.70
2018-06-07T07:41:21.268Z,53.50
2018-06-07T07:43:55.478Z,53.10
2018-06-07T07:46:29.721Z,53.40
2018-06-07T07:49:04.086Z,52.30
2018-06-07T07:51:38.367Z,52.60
2018-06-07T07:54:12.618Z,51.80
2018-06-07T07:56:46.831Z,52.10
2018-06-07T07:59:21.206Z,51.80
2018-06-07T08:01:55.522Z,51.50
2018-06-07T08:04:29.725Z,51.00
2018-06-07T08:07:03.997Z,50.90
2018-06-07T08:09:38.300Z,50.50
2018-06-07T08:12:12.633Z,51.40
2018-06-07T08:14:46.967Z,51.70
2018-06-07T08:17:21.350Z,51.20
2018-06-07T08:19:56.003Z,50.70
2018-06-07T08:22:30.328Z,50.70
2018-06-07T08:25:04.614Z,51.40
2018-06-07T08:27:38.981Z,50.30
2018-06-07T08:30:13.227Z,50.80
2018-06-07T08:32:47.497Z,51.10
2018-06-07T08:35:21.865Z,49.90
2018-06-07T08:37:56.169Z,50.10
2018-06-07T08:40:30.402Z,50.10
2018-06-07T08:43:04.722Z,50.30
2018-06-07T08:45:38.994Z,50.60
2018-06-07T08:50:47.197Z,49.40
2018-06-07T08:53:21.394Z,49.20
2018-06-07T08:55:55.559Z,48.80
2018-06-07T08:58:29.807Z,48.70
2018-06-07T09:01:04.218Z,49.40
2018-06-07T09:03:38.407Z,49.20
2018-06-07T09:06:12.927Z,48.40
2018-06-07T09:08:47.791Z,47.60
2018-06-07T09:11:22.012Z,47.60
2018-06-07T09:13:56.327Z,48.00
2018-06-07T09:16:30.601Z,46.50
2018-06-07T09:19:05.090Z,47.50
2018-06-07T09:21:39.288Z,47.40
2018-06-07T09:24:13.534Z,47.40
2018-06-07T09:26:47.959Z,47.20
2018-06-07T09:29:22.242Z,46.70
2018-06-07T09:31:56.542Z,46.90
2018-06-07T09:34:30.835Z,46.50
2018-06-07T09:37:05.234Z,46.10
2018-06-07T09:39:39.678Z,46.50
2018-06-07T09:42:13.868Z,46.40
2018-06-07T09:44:48.302Z,46.50
2018-06-07T09:47:22.596Z,45.80
2018-06-07T09:49:56.970Z,46.90
2018-06-07T09:52:31.258Z,46.30
2018-06-07T09:55:05.443Z,46.40
2018-06-07T09:57:40.073Z,46.40
2018-06-07T10:00:19.775Z,46.00
2018-06-07T10:02:54.330Z,46.60
2018-06-07T10:05:28.528Z,46.40
2018-06-07T10:08:02.866Z,45.70
2018-06-07T10:10:37.131Z,45.80
2018-06-07T10:13:11.421Z,46.30
2018-06-07T10:15:45.724Z,44.90
2018-06-07T10:18:20.018Z,46.00
2018-06-07T10:20:54.237Z,45.50
2018-06-07T10:23:28.402Z,44.70
2018-06-07T10:26:02.651Z,45.90
2018-06-07T10:28:36.955Z,46.20
2018-06-07T10:31:11.395Z,45.80
2018-06-07T10:33:45.874Z,46.10
2018-06-07T10:36:20.182Z,44.90
2018-06-07T10:38:54.543Z,45.70
2018-06-07T10:41:28.812Z,45.50
2018-06-07T10:44:03.094Z,44.40
2018-06-07T10:46:37.391Z,44.80
2018-06-07T10:49:11.899Z,44.40
2018-06-07T10:51:46.215Z,44.50
2018-06-07T10:54:20.355Z,43.60
2018-06-07T10:56:54.630Z,43.60
2018-06-07T10:59:29.026Z,44.00
2018-06-07T11:02:03.376Z,44.30
2018-06-07T11:04:37.691Z,43.70
2018-06-07T11:07:12.044Z,41.90
2018-06-07T11:09:46.319Z,43.70
2018-06-07T11:12:20.646Z,43.70
2018-06-07T11:14:54.881Z,42.10
2018-06-07T11:17:29.313Z,43.70
2018-06-07T11:20:03.674Z,42.70
2018-06-07T11:22:37.970Z,42.20
2018-06-07T11:25:12.265Z,43.90
2018-06-07T11:27:46.662Z,43.00
2018-06-07T11:30:20.906Z,41.40
2018-06-07T11:32:55.069Z,41.30
2018-06-07T11:35:29.423Z,42.20
2018-06-07T11:38:03.648Z,42.10
2018-06-07T11:40:37.939Z,42.60
2018-06-07T11:43:12.362Z,41.00
2018-06-07T11:45:46.742Z,41.00
2018-06-07T11:48:21.083Z,41.10
2018-06-07T11:50:55.436Z,42.60
2018-06-07T11:53:29.845Z,40.40
2018-06-07T11:56:04.043Z,40.60
2018-06-07T11:58:38.445Z,39.30
2018-06-07T12:01:12.599Z,40.20
2018-06-07T12:03:46.906Z,41.20
2018-06-07T12:06:21.050Z,40.00
2018-06-07T12:08:55.396Z,39.50
2018-06-07T12:11:29.659Z,39.90
2018-06-07T12:14:04.155Z,40.20
2018-06-07T12:16:38.466Z,39.20
2018-06-07T12:19:12.830Z,38.10
2018-06-07T12:21:47.102Z,39.30
2018-06-07T12:24:21.297Z,40.70
2018-06-07T12:26:55.779Z,39.20
2018-06-07T12:29:30.057Z,37.60
2018-06-07T12:32:04.311Z,38.00
2018-06-07T12:34:38.565Z,38.60
2018-06-07T12:37:12.814Z,39.50
2018-06-07T12:39:47.124Z,39.80
2018-06-07T12:42:21.502Z,39.00
2018-06-07T12:44:55.758Z,39.20
2018-06-07T12:47:30.276Z,38.30
2018-06-07T12:50:04.551Z,38.70
2018-06-07T12:52:38.829Z,39.60
2018-06-07T12:55:13.241Z,38.10
2018-06-07T12:57:47.410Z,38.00
2018-06-07T13:00:21.723Z,36.60
2018-06-07T13:02:55.974Z,36.60
2018-06-07T13:05:30.296Z,37.70
2018-06-07T13:08:04.507Z,37.20
2018-06-07T13:10:38.759Z,37.50
2018-06-07T13:13:13.014Z,37.70
2018-06-07T13:15:47.383Z,37.30
2018-06-07T13:18:21.815Z,37.70
2018-06-07T13:20:56.219Z,37.80
2018-06-07T13:23:30.520Z,37.80
2018-06-07T13:26:05.071Z,36.70
2018-06-07T13:28:39.306Z,36.20
2018-06-07T13:31:13.486Z,36.70
2018-06-07T13:36:22.032Z,35.50
2018-06-07T13:38:56.326Z,36.20
2018-06-07T13:41:30.670Z,38.00
2018-06-07T13:44:04.987Z,37.30
2018-06-07T13:46:39.307Z,37.20
2018-06-07T13:49:13.486Z,37.20
2018-06-07T13:51:47.799Z,36.30
2018-06-07T13:54:22.009Z,35.50
2018-06-07T13:56:56.442Z,34.00
2018-06-07T13:59:30.781Z,34.30
2018-06-07T14:02:05.043Z,34.90
2018-06-07T14:04:39.245Z,33.00
2018-06-07T14:07:13.538Z,35.00
2018-06-07T14:09:47.976Z,35.30
2018-06-07T14:12:22.146Z,35.00
2018-06-07T14:14:56.383Z,35.60
2018-06-07T14:17:32.185Z,35.30
2018-06-07T14:20:06.649Z,33.90
2018-06-07T14:22:40.972Z,34.70
2018-06-07T14:25:15.484Z,33.90
2018-06-07T14:27:51.047Z,35.00
2018-06-07T14:30:26.749Z,34.50
2018-06-07T14:33:01.410Z,33.40
2018-06-07T14:35:35.585Z,33.20
2018-06-07T14:38:09.722Z,34.30
2018-06-07T14:40:43.986Z,34.80
2018-06-07T14:43:18.182Z,33.70
2018-06-07T14:45:52.388Z,34.90
2018-06-07T14:48:26.638Z,32.60
2018-06-07T14:51:00.922Z,33.30
2018-06-07T14:53:35.258Z,34.90
2018-06-07T14:56:09.655Z,34.00
2018-06-07T14:58:43.903Z,33.70
2018-06-07T15:01:18.235Z,33.40
2018-06-07T15:03:52.427Z,31.80
2018-06-07T15:06:26.864Z,30.80
2018-06-07T15:11:35.285Z,33.30
2018-06-07T15:14:09.604Z,31.60
2018-06-07T15:16:43.719Z,32.80
2018-06-07T15:19:18.029Z,32.20
2018-06-07T15:21:52.328Z,32.10
2018-06-07T15:24:26.613Z,32.30
2018-06-07T15:27:00.878Z,32.90
2018-06-07T15:29:35.246Z,30.50
2018-06-07T15:32:09.471Z,31.40
2018-06-07T15:34:43.784Z,31.30
2018-06-07T15:37:18.071Z,32.60
2018-06-07T15:39:53.213Z,31.70
2018-06-07T15:42:27.490Z,31.20
2018-06-07T15:45:01.690Z,30.90
2018-06-07T15:47:36.035Z,30.60
2018-06-07T15:50:10.486Z,31.70
2018-06-07T15:52:44.672Z,32.50
2018-06-07T15:55:19.011Z,30.80
2018-06-07T15:57:53.368Z,32.30
2018-06-07T16:00:27.682Z,30.70
2018-06-07T16:03:01.983Z,32.10
2018-06-07T16:05:36.260Z,30.10
2018-06-07T16:08:10.672Z,30.70
2018-06-07T16:10:45.083Z,30.10
2018-06-07T16:13:19.386Z,30.20
2018-06-07T16:15:53.720Z,32.40
2018-06-07T16:18:27.939Z,30.20
2018-06-07T16:21:02.264Z,30.80
2018-06-07T16:23:36.551Z,30.30
2018-06-07T16:26:10.733Z,30.80
2018-06-07T16:28:44.994Z,30.90
2018-06-07T16:31:19.303Z,29.30
2018-06-07T16:33:53.807Z,29.20
2018-06-07T16:36:28.161Z,30.80
2018-06-07T16:41:36.594Z,30.10
2018-06-07T16:44:10.761Z,31.30
2018-06-07T16:46:45.112Z,30.00
2018-06-07T16:49:19.366Z,30.50
2018-06-07T16:51:53.671Z,30.00
2018-06-07T16:54:27.929Z,29.90
2018-06-07T16:57:02.380Z,29.00
2018-06-07T16:59:36.660Z,30.00
2018-06-07T17:02:11.042Z,31.10
2018-06-07T17:04:45.319Z,31.40
2018-06-07T17:07:19.616Z,30.90
2018-06-07T17:09:54.008Z,31.10
2018-06-07T17:12:28.327Z,29.70
2018-06-07T17:15:02.573Z,30.00
2018-06-07T17:17:36.876Z,29.50
2018-06-07T17:20:11.042Z,31.50
2018-06-07T17:22:45.456Z,30.50
2018-06-07T17:25:19.619Z,30.00
2018-06-07T17:27:53.931Z,30.50
2018-06-07T17:30:28.282Z,31.70
2018-06-07T17:33:02.485Z,32.30
2018-06-07T17:35:36.784Z,32.90
2018-06-07T17:38:11.106Z,35.10
2018-06-07T17:40:45.466Z,33.00
2018-06-07T17:43:19.875Z,34.40
2018-06-07T17:45:54.226Z,33.80
2018-06-07T17:51:02.719Z,35.00
2018-06-07T17:53:37.024Z,35.90
2018-06-07T17:56:11.265Z,35.40
2018-06-07T17:58:45.576Z,37.50
2018-06-07T18:01:19.854Z,37.00
2018-06-07T18:03:54.165Z,37.50
2018-06-07T18:06:28.589Z,37.30
2018-06-07T18:09:02.836Z,39.70
2018-06-07T18:11:37.152Z,37.70
2018-06-07T18:14:11.463Z,37.10
2018-06-07T18:16:45.947Z,38.30
2018-06-07T18:19:20.168Z,38.50
2018-06-07T18:21:54.338Z,39.90
2018-06-07T18:24:28.502Z,39.70
2018-06-07T18:27:02.775Z,40.20
2018-06-07T18:29:37.106Z,40.20
2018-06-07T18:32:11.389Z,40.40
2018-06-07T18:34:45.890Z,40.60
2018-06-07T18:37:20.209Z,41.10
2018-06-07T18:39:54.522Z,42.30
2018-06-07T18:42:28.877Z,42.90
2018-06-07T18:45:03.222Z,42.60
2018-06-07T18:50:11.607Z,40.30
2018-06-07T18:52:45.782Z,40.90
2018-06-07T18:55:20.092Z,42.10
2018-06-07T19:00:28.612Z,41.90
2018-06-07T19:03:02.832Z,42.70
2018-06-07T19:05:37.067Z,43.00
2018-06-07T19:08:11.403Z,43.20
2018-06-07T19:10:45.822Z,43.40
2018-06-07T19:13:25.564Z,43.70
2018-06-07T19:15:59.751Z,44.30
2018-06-07T19:18:34.053Z,44.80
2018-06-07T19:21:08.331Z,45.90
2018-06-07T19:23:42.466Z,46.80
2018-06-07T19:26:22.438Z,46.80
2018-06-07T19:28:56.615Z,47.30
2018-06-07T19:31:30.921Z,47.20
2018-06-07T19:34:10.655Z,48.10
2018-06-07T19:36:44.827Z,47.90
2018-06-07T19:39:24.559Z,48.50
2018-06-07T19:42:07.840Z,48.00
2018-06-07T19:44:42.099Z,48.90
2018-06-07T19:47:16.411Z,49.20
2018-06-07T19:49:50.671Z,49.20
2018-06-07T19:52:24.992Z,49.60
2018-06-07T19:54:59.258Z,49.50
2018-06-07T19:57:33.438Z,49.50
2018-06-07T20:00:08.032Z,47.80
2018-06-07T20:02:42.308Z,48.70
2018-06-07T20:05:16.566Z,48.80
2018-06-07T20:07:50.894Z,49.50
2018-06-07T20:10:25.224Z,49.70
2018-06-07T20:12:59.614Z,50.90
2018-06-07T20:15:33.993Z,50.90
2018-06-07T20:18:08.474Z,50.80
2018-06-07T20:20:42.718Z,50.90
2018-06-07T20:23:16.975Z,51.60
2018-06-07T20:25:51.427Z,51.20
2018-06-07T20:28:25.840Z,51.40
2018-06-07T20:31:00.144Z,51.60
2018-06-07T20:33:34.370Z,52.40
2018-06-07T20:36:08.714Z,52.70
2018-06-07T20:38:43.078Z,52.70
2018-06-07T20:41:17.467Z,53.40
2018-06-07T20:43:51.878Z,52.70
2018-06-07T20:46:26.226Z,53.70
2018-06-07T20:49:00.706Z,53.70
2018-06-07T20:51:34.891Z,53.60
2018-06-07T20:54:09.307Z,53.50
2018-06-07T20:56:43.605Z,54.30
2018-06-07T20:59:17.962Z,54.30
2018-06-07T21:01:52.166Z,54.50
2018-06-07T21:04:26.455Z,54.70
2018-06-07T21:07:00.771Z,55.20
2018-06-07T21:09:35.116Z,55.50
2018-06-07T21:12:09.379Z,55.70
2018-06-07T21:14:43.813Z,55.90
2018-06-07T21:17:18.168Z,55.40
2018-06-07T21:19:52.351Z,55.90
2018-06-07T21:22:26.650Z,56.60
2018-06-07T21:25:00.870Z,56.80
2018-06-07T21:27:35.131Z,56.60
2018-06-07T21:30:09.551Z,56.60
2018-06-07T21:32:43.963Z,56.80
2018-06-07T21:35:18.266Z,57.00
2018-06-07T21:37:52.515Z,57.00
2018-06-07T21:40:26.841Z,57.30
2018-06-07T21:43:01.179Z,57.80
2018-06-07T21:45:35.357Z,57.90
2018-06-07T21:48:09.617Z,58.30
2018-06-07T21:50:43.940Z,59.40
2018-06-07T21:53:18.196Z,60.70
2018-06-07T21:55:52.527Z,60.00
2018-06-07T21:58:27.059Z,59.50
2018-06-07T22:03:35.289Z,59.80
2018-06-07T22:06:09.708Z,60.10
2018-06-07T22:08:43.981Z,60.70
2018-06-07T22:11:18.183Z,60.70
2018-06-07T22:13:52.474Z,60.70
2018-06-07T22:16:26.707Z,61.20
2018-06-07T22:19:01.030Z,60.00
2018-06-07T22:21:35.298Z,60.80
2018-06-07T22:24:09.739Z,61.90
2018-06-07T22:26:44.027Z,61.70
2018-06-07T22:29:18.313Z,61.70
2018-06-07T22:31:52.462Z,61.50
2018-06-07T22:34:26.703Z,62.50
2018-06-07T22:37:01.022Z,63.60
2018-06-07T22:39:35.243Z,63.90
2018-06-07T22:42:09.427Z,63.70
2018-06-07T22:44:43.679Z,63.20
2018-06-07T22:47:17.906Z,63.60
2018-06-07T22:49:52.113Z,64.20
2018-06-07T22:52:26.295Z,64.80
2018-06-07T22:55:00.648Z,65.40
2018-06-07T22:57:34.945Z,66.50
2018-06-07T23:00:09.309Z,66.00
2018-06-07T23:02:49.780Z,65.50
2018-06-07T23:05:24.104Z,65.40
2018-06-07T23:07:58.395Z,65.70
2018-06-07T23:10:32.609Z,65.40
2018-06-07T23:13:06.943Z,65.60
2018-06-07T23:15:41.278Z,65.80
2018-06-07T23:18:15.586Z,65.80
2018-06-07T23:20:49.896Z,66.00
2018-06-07T23:23:24.166Z,66.30
2018-06-07T23:25:58.360Z,66.80
2018-06-07T23:28:32.640Z,66.40
2018-06-07T23:31:06.946Z,66.40
2018-06-07T23:33:41.199Z,66.40
2018-06-07T23:36:15.605Z,66.20
2018-06-07T23:38:49.890Z,66.90
2018-06-07T23:41:24.039Z,68.70
2018-06-07T23:43:58.369Z,68.90
2018-06-07T23:46:32.520Z,69.10
2018-06-07T23:49:06.812Z,70.10
2018-06-07T23:51:41.106Z,70.10
2018-06-07T23:54:15.447Z,69.70
2018-06-07T23:56:49.786Z,68.70
2018-06-07T23:59:24.049Z,68.80
